createdAt,value
2023-03-25T07:11:07.692Z,6.91
2023-03-25T07:12:09.545Z,7.44
2023-03-25T07:15:55.613Z,7.40
2023-03-25T07:19:53.822Z,7.59
2023-03-25T07:28:00.627Z,7.64
2023-03-25T07:30:56.119Z,7.82
2023-03-25T07:31:57.513Z,8.14
2023-03-25T07:32:59.275Z,8.50
2023-03-25T07:34:58.012Z,8.57
2023-03-25T07:35:59.492Z,8.80
2023-03-25T07:37:00.909Z,9.03
2023-03-25T07:38:02.923Z,8.98
2023-03-25T07:39:04.330Z,8.94
2023-03-25T07:40:06.495Z,8.91
2023-03-25T07:41:10.454Z,8.97
2023-03-25T07:42:11.848Z,8.84
2023-03-25T07:43:13.170Z,8.80
2023-03-25T07:44:17.163Z,8.31
2023-03-25T07:45:19.686Z,7.84
2023-03-25T07:46:21.145Z,7.99
2023-03-25T07:47:22.660Z,8.09
2023-03-25T07:48:24.241Z,8.44
2023-03-25T07:49:26.193Z,8.93
2023-03-25T07:50:27.606Z,9.09
2023-03-25T07:51:30.141Z,8.53
2023-03-25T07:52:31.547Z,8.54
2023-03-25T07:53:33.009Z,8.98
2023-03-25T07:54:34.458Z,9.23
2023-03-25T07:55:36.247Z,9.16
2023-03-25T07:56:38.172Z,8.63
2023-03-25T07:57:41.597Z,8.92
2023-03-25T07:58:44.419Z,9.11
2023-03-25T07:59:45.998Z,9.24
2023-03-25T08:00:47.427Z,9.26
2023-03-25T08:01:48.824Z,9.14
2023-03-25T08:02:50.621Z,9.57
2023-03-25T08:03:52.202Z,9.83
2023-03-25T08:04:54.909Z,9.70
2023-03-25T08:05:56.293Z,9.91
2023-03-25T08:06:57.713Z,10.18
2023-03-25T08:08:01.715Z,10.15
2023-03-25T08:09:03.869Z,10.12
2023-03-25T08:10:05.736Z,10.18
2023-03-25T08:11:07.528Z,9.43
2023-03-25T08:12:09.533Z,8.89
2023-03-25T08:13:11.990Z,8.63
2023-03-25T08:14:13.584Z,8.66
2023-03-25T08:15:17.008Z,8.60
2023-03-25T08:16:18.684Z,8.53
2023-03-25T08:17:20.199Z,8.27
2023-03-25T08:18:21.667Z,8.07
2023-03-25T08:19:23.074Z,8.22
2023-03-25T08:20:24.427Z,8.08
2023-03-25T08:21:27.318Z,8.08
2023-03-25T08:22:28.727Z,8.02
2023-03-25T08:23:30.197Z,7.91
2023-03-25T08:24:32.588Z,7.70
2023-03-25T08:25:33.983Z,7.54
2023-03-25T08:26:35.514Z,7.36
2023-03-25T08:27:36.875Z,7.12
2023-03-25T08:28:38.675Z,6.85
2023-03-25T08:29:40.210Z,6.74
2023-03-25T08:30:44.690Z,6.65
2023-03-25T08:31:47.188Z,6.62
2023-03-25T08:55:32.355Z,5.69
2023-03-25T08:56:33.833Z,6.29
2023-03-25T08:57:36.283Z,6.21
2023-03-25T08:58:37.663Z,6.33
2023-03-25T08:59:39.113Z,6.78
2023-03-25T09:00:40.617Z,7.10
2023-03-25T09:01:43.590Z,7.30
2023-03-25T09:02:46.024Z,7.15
2023-03-25T09:03:47.503Z,7.43
2023-03-25T09:04:49.491Z,7.15
2023-03-25T09:05:51.277Z,6.97
2023-03-25T09:07:11.073Z,6.90
2023-03-25T09:08:13.891Z,7.67
2023-03-25T09:09:16.461Z,8.24
2023-03-25T09:10:18.160Z,8.07
2023-03-25T09:11:30.161Z,7.82
2023-03-25T09:12:37.648Z,7.74
2023-03-25T09:13:39.124Z,7.25
2023-03-25T09:14:40.864Z,7.00
2023-03-25T09:15:42.312Z,7.19
2023-03-25T09:16:43.671Z,7.25
2023-03-25T09:17:45.136Z,7.00
2023-03-25T09:18:46.593Z,7.03
2023-03-25T09:19:48.091Z,7.33
2023-03-25T09:20:51.910Z,7.76
2023-03-25T09:21:53.556Z,7.90
2023-03-25T09:22:55.202Z,8.07
2023-03-25T09:23:56.587Z,8.05
2023-03-25T09:24:57.937Z,7.80
2023-03-25T09:26:03.887Z,7.93
2023-03-25T09:27:05.509Z,7.92
2023-03-25T09:28:07.051Z,8.28
2023-03-25T09:29:08.391Z,8.33
2023-03-25T09:30:10.756Z,8.60
2023-03-25T09:31:12.988Z,8.27
2023-03-25T09:32:15.068Z,8.25
2023-03-25T09:33:16.548Z,8.44
2023-03-25T09:34:17.919Z,8.48
2023-03-25T09:35:19.483Z,8.15
2023-03-25T09:36:20.907Z,7.91
2023-03-25T09:37:22.395Z,7.64
2023-03-25T09:38:23.859Z,7.45
2023-03-25T09:39:25.255Z,7.24
2023-03-25T09:40:26.675Z,7.34
2023-03-25T09:41:48.037Z,8.00
2023-03-25T09:42:58.752Z,8.39
2023-03-25T09:44:23.473Z,8.76
2023-03-25T09:45:42.046Z,9.29
2023-03-25T09:46:44.299Z,9.41
2023-03-25T09:47:56.283Z,9.22
2023-03-25T09:48:58.945Z,9.80
2023-03-25T09:50:06.349Z,9.26
2023-03-25T09:51:14.856Z,8.82
2023-03-25T09:52:22.489Z,8.80
2023-03-25T09:53:57.982Z,8.93
2023-03-25T09:55:04.115Z,8.54
2023-03-25T09:56:11.840Z,8.38
2023-03-25T09:57:20.219Z,8.40
2023-03-25T09:58:21.949Z,8.61
2023-03-25T09:59:38.961Z,8.37
2023-03-25T10:00:40.843Z,8.35
2023-03-25T10:01:52.090Z,9.44
2023-03-25T10:03:20.091Z,10.37
2023-03-25T10:04:21.505Z,10.52
2023-03-25T10:05:44.473Z,10.42
2023-03-25T10:06:57.895Z,10.91
2023-03-25T10:08:13.398Z,11.02
2023-03-25T10:09:44.355Z,10.38
2023-03-25T10:11:15.770Z,9.60
2023-03-25T10:12:33.149Z,9.29
2023-03-25T10:14:01.373Z,9.95
2023-03-25T10:15:14.376Z,9.54
2023-03-25T10:16:42.105Z,9.26
2023-03-25T10:17:56.491Z,9.39
2023-03-25T10:19:17.339Z,9.85
2023-03-25T10:20:43.078Z,10.26
2023-03-25T10:21:57.636Z,10.35
2023-03-25T10:23:02.128Z,10.17
2023-03-25T10:24:17.616Z,10.76
2023-03-25T10:25:24.151Z,10.38
2023-03-25T10:26:42.686Z,10.00
2023-03-25T10:27:51.231Z,10.24
2023-03-25T10:29:04.971Z,10.09
2023-03-25T10:30:09.326Z,10.01
2023-03-25T10:31:17.779Z,9.93
2023-03-25T10:32:32.953Z,9.60
2023-03-25T10:33:41.643Z,9.27
2023-03-25T10:34:50.347Z,9.11
2023-03-25T10:35:52.201Z,8.98
2023-03-25T10:36:58.062Z,8.92
2023-03-25T10:38:14.393Z,8.75
2023-03-25T10:39:19.565Z,8.52
2023-03-25T10:40:31.406Z,8.61
2023-03-25T10:41:39.686Z,8.64
2023-03-25T10:43:05.760Z,8.76
2023-03-25T10:44:11.575Z,8.69
2023-03-25T10:45:15.671Z,8.69
2023-03-25T10:46:20.407Z,8.86
2023-03-25T10:47:29.329Z,9.86
2023-03-25T10:48:31.944Z,10.02
2023-03-25T10:49:34.403Z,9.98
2023-03-25T10:50:36.576Z,10.43
2023-03-25T10:51:39.049Z,10.84
2023-03-25T10:52:41.584Z,11.11
2023-03-25T10:53:48.075Z,11.22
2023-03-25T10:54:53.794Z,11.63
2023-03-25T10:56:08.838Z,11.33
2023-03-25T10:57:20.308Z,10.49
2023-03-25T10:58:22.541Z,9.88
2023-03-25T10:59:30.076Z,10.49
2023-03-25T11:00:31.750Z,10.91
2023-03-25T11:01:42.625Z,10.95
2023-03-25T11:02:44.926Z,10.50
2023-03-25T11:03:53.620Z,10.44
2023-03-25T11:04:58.838Z,10.05
2023-03-25T11:06:00.426Z,11.60
2023-03-25T11:07:05.488Z,11.11
2023-03-25T11:08:23.791Z,10.66
2023-03-25T11:09:32.391Z,10.98
2023-03-25T11:10:34.207Z,11.04
2023-03-25T11:11:36.576Z,10.74
2023-03-25T11:13:44.031Z,9.64
2023-03-25T11:14:53.785Z,9.42
2023-03-25T11:15:59.899Z,10.24
2023-03-25T11:17:05.737Z,9.63
2023-03-25T11:18:40.807Z,9.26
2023-03-25T11:19:46.361Z,9.86
2023-03-25T11:20:55.480Z,9.52
2023-03-25T11:22:07.759Z,9.50
2023-03-25T11:23:22.349Z,10.35
2023-03-25T11:24:31.147Z,10.94
2023-03-25T11:25:37.508Z,11.12
2023-03-25T11:26:41.146Z,11.63
2023-03-25T11:27:53.770Z,11.35
2023-03-25T11:29:03.327Z,11.82
2023-03-25T11:30:14.300Z,11.67
2023-03-25T11:31:22.020Z,11.63
2023-03-25T11:32:31.993Z,11.29
2023-03-25T11:33:33.604Z,11.00
2023-03-25T11:34:41.982Z,11.73
2023-03-25T11:35:44.446Z,11.64
2023-03-25T11:36:59.280Z,11.99
2023-03-25T11:38:12.787Z,12.11
2023-03-25T11:39:19.239Z,11.80
2023-03-25T11:40:21.010Z,11.43
2023-03-25T11:41:22.826Z,11.93
2023-03-25T11:42:33.018Z,12.32
2023-03-25T11:43:37.806Z,11.65
2023-03-25T11:44:39.614Z,10.80
2023-03-25T11:45:45.210Z,10.08
2023-03-25T11:46:50.738Z,9.86
2023-03-25T11:47:53.037Z,9.32
2023-03-25T11:48:54.522Z,9.21
2023-03-25T11:49:56.084Z,10.14
2023-03-25T11:51:01.459Z,10.07
2023-03-25T11:52:18.536Z,10.02
2023-03-25T11:53:21.668Z,10.06
2023-03-25T11:54:25.767Z,10.50
2023-03-25T11:55:30.503Z,10.91
2023-03-25T11:56:38.263Z,10.78
2023-03-25T11:57:41.300Z,10.81
2023-03-25T11:58:43.217Z,10.56
2023-03-25T11:59:47.927Z,10.91
2023-03-25T12:00:53.405Z,11.43
2023-03-25T12:02:20.816Z,11.41
2023-03-25T12:03:26.802Z,11.23
2023-03-25T12:04:29.362Z,11.20
2023-03-25T12:05:32.357Z,10.85
2023-03-25T12:06:33.800Z,11.53
2023-03-25T12:07:50.202Z,11.96
2023-03-25T12:08:59.753Z,11.72
2023-03-25T12:10:06.493Z,11.51
2023-03-25T12:11:14.184Z,11.50
2023-03-25T12:12:26.616Z,11.37
2023-03-25T12:14:05.697Z,11.58
2023-03-25T12:15:18.106Z,10.42
2023-03-25T12:16:41.318Z,9.68
2023-03-25T12:17:51.713Z,9.54
2023-03-25T12:19:23.977Z,9.26
2023-03-25T12:20:51.351Z,8.90
2023-03-25T12:22:08.215Z,8.85
2023-03-25T12:23:48.895Z,8.61
2023-03-25T12:25:26.321Z,8.27
2023-03-25T12:26:45.575Z,8.00
2023-03-25T12:27:50.291Z,7.94
2023-03-25T12:28:54.431Z,7.75
2023-03-25T12:30:07.308Z,7.58
2023-03-25T12:31:46.483Z,7.27
2023-03-25T12:32:53.801Z,7.14
2023-03-25T12:34:08.973Z,7.11
2023-03-25T12:35:37.524Z,8.46
2023-03-25T12:36:44.440Z,8.74
2023-03-25T12:37:58.267Z,8.99
2023-03-25T12:39:17.666Z,9.09
2023-03-25T12:40:28.010Z,9.33
2023-03-25T12:41:44.168Z,9.53
2023-03-25T12:43:05.003Z,9.92
2023-03-25T12:44:38.276Z,10.03
2023-03-25T12:45:54.702Z,10.34
2023-03-25T12:47:04.038Z,9.69
2023-03-25T12:48:19.106Z,10.24
2023-03-25T12:49:38.804Z,10.22
2023-03-25T12:51:00.154Z,9.73
2023-03-25T12:52:26.263Z,10.01
2023-03-25T12:53:47.852Z,10.19
2023-03-25T12:54:57.296Z,9.59
2023-03-25T12:56:14.304Z,9.24
2023-03-25T12:57:39.795Z,9.79
2023-03-25T12:59:13.799Z,10.03
2023-03-25T13:00:33.984Z,9.73
2023-03-25T13:02:01.646Z,10.37
2023-03-25T13:03:34.647Z,10.28
2023-03-25T13:04:49.148Z,10.07
2023-03-25T13:06:14.856Z,10.15
2023-03-25T13:07:21.722Z,10.64
2023-03-25T13:08:34.408Z,10.39
2023-03-25T13:09:53.401Z,10.56
2023-03-25T13:11:08.014Z,10.65
2023-03-25T13:12:14.723Z,10.25
2023-03-25T13:13:27.358Z,9.55
2023-03-25T13:14:48.431Z,9.67
2023-03-25T13:16:01.614Z,9.70
2023-03-25T13:17:09.108Z,10.16
2023-03-25T13:18:29.714Z,9.70
2023-03-25T13:19:39.286Z,10.32
2023-03-25T13:20:46.552Z,10.45
2023-03-25T13:21:52.837Z,10.43
2023-03-25T13:23:01.744Z,10.50
2023-03-25T13:24:11.023Z,10.85
2023-03-25T13:25:24.194Z,11.07
2023-03-25T13:26:29.386Z,11.69
2023-03-25T13:27:39.497Z,11.35
2023-03-25T13:29:01.832Z,11.38
2023-03-25T13:30:09.131Z,11.44
2023-03-25T13:31:15.887Z,11.84
2023-03-25T13:32:25.009Z,12.06
2023-03-25T13:33:31.092Z,11.71
2023-03-25T13:34:51.924Z,11.50
2023-03-25T13:36:03.746Z,11.76
2023-03-25T13:37:19.319Z,11.95
2023-03-25T13:38:33.020Z,11.97
2023-03-25T13:40:10.147Z,11.84
2023-03-25T13:41:19.988Z,11.42
2023-03-25T13:42:45.689Z,11.86
2023-03-25T13:44:00.702Z,10.90
2023-03-25T13:45:04.259Z,10.50
2023-03-25T13:46:21.389Z,10.25
2023-03-25T13:47:31.857Z,10.18
2023-03-25T13:49:02.714Z,10.26
2023-03-25T13:50:16.030Z,9.86
2023-03-25T13:51:21.148Z,9.73
2023-03-25T13:52:29.832Z,9.48
2023-03-25T13:53:44.054Z,9.36
2023-03-25T14:00:58.615Z,8.26
2023-03-25T14:02:33.862Z,8.32
2023-03-25T14:04:08.152Z,8.99
2023-03-25T14:05:40.083Z,9.46
2023-03-25T14:06:57.535Z,9.40
2023-03-25T14:08:31.927Z,9.94
2023-03-25T14:10:00.457Z,9.79
2023-03-25T14:11:17.098Z,9.71
2023-03-25T14:12:24.141Z,9.83
2023-03-25T14:13:32.000Z,10.10
2023-03-25T14:14:41.031Z,10.27
2023-03-25T14:15:53.773Z,10.43
2023-03-25T14:17:01.291Z,10.28
2023-03-25T14:18:04.977Z,10.57
2023-03-25T14:19:20.483Z,10.71
2023-03-25T14:20:32.345Z,10.47
2023-03-25T14:21:36.478Z,10.53
2023-03-25T14:22:43.775Z,10.76
2023-03-25T14:23:45.601Z,10.76
2023-03-25T14:24:49.151Z,11.04
2023-03-25T14:25:58.543Z,11.33
2023-03-25T14:27:06.685Z,11.97
2023-03-25T14:28:16.059Z,12.07
2023-03-25T14:29:42.230Z,11.37
2023-03-25T14:30:44.469Z,11.69
2023-03-25T14:32:23.470Z,11.48
2023-03-25T14:33:25.722Z,11.35
2023-03-25T14:34:27.218Z,11.81
2023-03-25T14:35:31.535Z,11.84
2023-03-25T14:36:42.157Z,11.69
2023-03-25T14:37:43.755Z,12.06
2023-03-25T14:38:56.523Z,12.10
2023-03-25T14:40:01.963Z,12.16
2023-03-25T14:41:04.176Z,11.70
2023-03-25T14:42:08.611Z,11.84
2023-03-25T14:43:40.324Z,11.90
2023-03-25T14:44:49.577Z,12.00
2023-03-25T14:45:53.061Z,12.20
2023-03-25T14:47:22.347Z,12.61
2023-03-25T14:48:45.871Z,12.54
2023-03-25T14:49:54.876Z,12.63
2023-03-25T14:51:23.297Z,12.53
2023-03-25T14:52:32.555Z,12.28
2023-03-25T14:53:34.168Z,12.44
2023-03-25T14:54:36.469Z,12.33
2023-03-25T14:55:44.224Z,12.36
2023-03-25T14:56:56.833Z,12.75
2023-03-25T14:58:03.012Z,12.57
2023-03-25T14:59:15.962Z,12.60
2023-03-25T15:00:29.762Z,13.03
2023-03-25T15:01:35.359Z,12.77
2023-03-25T15:02:38.076Z,12.65
2023-03-25T15:03:44.057Z,12.54
2023-03-25T15:04:51.424Z,12.60
2023-03-25T15:05:58.105Z,12.73
2023-03-25T15:07:04.932Z,13.04
2023-03-25T15:08:06.853Z,12.69
2023-03-25T15:09:12.482Z,12.48
2023-03-25T15:10:32.037Z,12.60
2023-03-25T15:11:35.688Z,12.88
2023-03-25T15:12:38.966Z,12.98
2023-03-25T15:13:52.579Z,12.88
2023-03-25T15:15:08.506Z,12.45
2023-03-25T15:16:34.331Z,12.86
2023-03-25T15:17:53.891Z,13.02
2023-03-25T15:18:55.352Z,12.83
2023-03-25T15:20:28.047Z,13.15
2023-03-25T15:21:53.894Z,13.18
2023-03-25T15:23:34.355Z,12.76
2023-03-25T15:24:38.448Z,12.87
2023-03-25T15:25:40.037Z,12.95
2023-03-25T15:26:44.447Z,12.57
2023-03-25T15:28:24.515Z,12.90
2023-03-25T15:29:31.647Z,13.04
2023-03-25T15:31:02.734Z,13.23
2023-03-25T15:32:25.969Z,13.35
2023-03-25T15:33:54.576Z,13.00
2023-03-25T15:35:30.596Z,12.96
2023-03-25T15:36:40.765Z,12.69
2023-03-25T15:37:51.185Z,12.48
2023-03-25T15:39:10.895Z,12.66
2023-03-25T15:40:41.128Z,12.68
2023-03-25T15:42:01.197Z,12.52
2023-03-25T15:43:21.516Z,12.55
2023-03-25T15:45:09.905Z,12.62
2023-03-25T15:46:11.538Z,12.50
2023-03-25T15:47:28.410Z,12.43
2023-03-25T15:48:54.391Z,12.17
2023-03-25T15:50:10.859Z,11.88
2023-03-25T15:51:46.956Z,11.24
2023-03-25T15:53:06.809Z,11.27
2023-03-25T15:54:27.039Z,11.09
2023-03-25T15:55:39.429Z,11.00
2023-03-25T15:56:46.020Z,11.30
2023-03-25T15:57:51.142Z,11.91
2023-03-25T15:59:07.120Z,11.64
2023-03-25T16:00:16.904Z,11.62
2023-03-25T16:01:31.270Z,11.96
2023-03-25T16:02:38.575Z,11.91
2023-03-25T16:03:42.558Z,11.82
2023-03-25T16:04:48.301Z,11.81
2023-03-25T16:05:54.643Z,11.70
2023-03-25T16:06:58.016Z,11.58
2023-03-25T16:08:07.277Z,11.92
2023-03-25T16:09:18.456Z,11.90
2023-03-25T16:10:32.955Z,11.72
2023-03-25T16:11:34.508Z,11.80
2023-03-25T16:12:35.892Z,11.81
2023-03-25T16:13:37.328Z,11.80
2023-03-25T16:14:42.986Z,11.80
2023-03-25T16:15:44.902Z,11.84
2023-03-25T16:16:57.078Z,11.92
2023-03-25T16:18:01.260Z,12.09
2023-03-25T16:19:11.759Z,11.96
2023-03-25T16:20:18.132Z,12.04
2023-03-25T16:21:19.746Z,12.05
2023-03-25T16:22:29.405Z,11.83
2023-03-25T16:23:31.683Z,11.52
2023-03-25T16:24:33.928Z,11.35
2023-03-25T16:25:38.804Z,11.37
2023-03-25T16:26:46.566Z,11.28
2023-03-25T16:27:55.563Z,11.31
2023-03-25T16:29:07.684Z,11.43
2023-03-25T16:30:22.447Z,11.10
2023-03-25T16:31:34.456Z,11.11
2023-03-25T16:32:36.598Z,10.95
2023-03-25T16:33:39.299Z,10.80
2023-03-25T16:34:41.078Z,10.91
2023-03-25T16:35:51.404Z,10.89
2023-03-25T16:36:53.944Z,11.02
2023-03-25T16:37:57.840Z,11.09
2023-03-25T16:38:59.244Z,10.98
2023-03-25T16:40:05.891Z,10.84
2023-03-25T16:41:12.177Z,10.90
2023-03-25T16:42:19.753Z,10.48
2023-03-25T16:43:24.520Z,10.62
2023-03-25T16:44:26.632Z,10.38
2023-03-25T16:45:28.288Z,10.28
2023-03-25T16:46:29.989Z,10.20
2023-03-25T16:47:33.346Z,10.08
2023-03-25T16:48:40.934Z,10.00
2023-03-25T16:49:47.189Z,10.11
2023-03-25T16:50:52.619Z,10.03
2023-03-25T16:51:56.512Z,9.90
2023-03-25T16:53:02.712Z,9.90
2023-03-25T16:54:20.765Z,9.95
2023-03-25T16:55:47.241Z,10.01
2023-03-25T16:56:49.191Z,9.96
2023-03-25T16:57:50.858Z,9.97
2023-03-25T16:59:18.859Z,9.92
2023-03-25T17:00:23.566Z,9.77
2023-03-25T17:01:25.406Z,9.77
2023-03-25T17:02:41.121Z,9.81
2023-03-25T17:03:46.552Z,9.85
2023-03-25T17:04:48.289Z,9.88
2023-03-25T17:06:02.330Z,9.84
2023-03-25T17:07:09.455Z,9.80
2023-03-25T17:08:11.177Z,9.78
2023-03-25T17:09:17.736Z,9.74
2023-03-25T17:10:27.965Z,9.48
2023-03-25T17:11:31.542Z,9.43
2023-03-25T17:12:34.650Z,9.37
2023-03-25T17:13:41.833Z,9.37
2023-03-25T17:14:46.396Z,9.37
2023-03-25T17:15:50.904Z,9.35
